Time;durP1;ratioP1;P1;durP2;ratioP2;P2;SDS_P1;SDS_P2;PMS_P1;PMS_P2;Temp;Humidity;BMP_temperature;BMP_pressure;BME280_temperature;BME280_humidity;BME280_pressure;Samples;Min_cycle;Max_cycle;Signal;HPM_P1;HPM_P2
2023/05/23 00:00:41;;;;;;;25.70;13.25;;;;;;;;;;5035316;28;20037;-60
2023/05/23 00:03:08;;;;;;;20.15;11.57;;;;;;;;;;5035355;28;20055;-60
2023/05/23 00:05:34;;;;;;;20.95;11.00;;;;;;;;;;5035406;28;20033;-60
2023/05/23 00:08:03;;;;;;;21.35;10.95;;;;;;;;;;5035063;28;20040;-60
2023/05/23 00:10:29;;;;;;;15.57;9.50;;;;;;;;;;5035416;28;20488;-60
2023/05/23 00:12:56;;;;;;;18.55;9.00;;;;;;;;;;5035151;28;20025;-60
2023/05/23 00:15:23;;;;;;;17.25;9.52;;;;;;;;;;5036498;28;20040;-60
2023/05/23 00:17:50;;;;;;;19.45;10.35;;;;;;;;;;5034311;28;20078;-60
2023/05/23 00:20:16;;;;;;;24.17;10.25;;;;;;;;;;5036206;28;20040;-60
2023/05/23 00:22:42;;;;;;;16.85;10.27;;;;;;;;;;5035459;28;20136;-60
2023/05/23 00:25:08;;;;;;;20.77;9.65;;;;;;;;;;5034846;28;20063;-60
2023/05/23 00:27:35;;;;;;;17.13;9.52;;;;;;;;;;5035281;28;20040;-60
2023/05/23 00:30:01;;;;;;;16.55;9.43;;;;;;;;;;5032898;28;20037;-60
2023/05/23 00:32:27;;;;;;;18.20;11.20;;;;;;;;;;5034555;28;20444;-60
2023/05/23 00:34:54;;;;;;;18.48;10.88;;;;;;;;;;5034325;28;20025;-60
2023/05/23 00:37:21;;;;;;;14.93;9.43;;;;;;;;;;5033124;28;20086;-60
2023/05/23 00:39:47;;;;;;;16.95;10.18;;;;;;;;;;5035274;28;20033;-60
2023/05/23 00:42:13;;;;;;;16.38;8.55;;;;;;;;;;5035146;28;20076;-60
2023/05/23 00:44:39;;;;;;;14.35;8.88;;;;;;;;;;5035528;28;20045;-60
2023/05/23 00:47:07;;;;;;;18.90;8.10;;;;;;;;;;5034913;28;20139;-60
2023/05/23 00:49:33;;;;;;;16.17;8.35;;;;;;;;;;5033140;28;20033;-60
2023/05/23 00:51:59;;;;;;;13.60;8.20;;;;;;;;;;5031916;28;20041;-60
2023/05/23 00:54:30;;;;;;;15.15;7.80;;;;;;;;;;5033784;28;20037;-60
2023/05/23 00:56:56;;;;;;;15.60;7.43;;;;;;;;;;5032428;28;20037;-60
2023/05/23 00:59:24;;;;;;;11.75;7.10;;;;;;;;;;5033968;28;20036;-60
2023/05/23 01:01:51;;;;;;;9.20;5.78;;;;;;;;;;5035172;28;20063;-60
2023/05/23 01:04:18;;;;;;;9.55;5.60;;;;;;;;;;5035728;28;20510;-60
2023/05/23 01:06:45;;;;;;;10.77;5.53;;;;;;;;;;5021843;28;20411;-60
2023/05/23 01:09:15;;;;;;;13.80;6.53;;;;;;;;;;5035051;28;20029;-60
2023/05/23 01:11:56;;;;;;;14.27;5.97;;;;;;;;;;5034308;28;20037;-59
2023/05/23 01:14:24;;;;;;;12.00;5.55;;;;;;;;;;5035210;28;20037;-59
2023/05/23 01:16:56;;;;;;;17.23;6.45;;;;;;;;;;5036620;28;20503;-60
2023/05/23 01:19:28;;;;;;;13.25;6.30;;;;;;;;;;5037504;28;20108;-60
2023/05/23 01:21:55;;;;;;;14.30;6.38;;;;;;;;;;5036834;28;20035;-60
2023/05/23 01:24:24;;;;;;;18.48;6.78;;;;;;;;;;5039204;28;20037;-60
2023/05/23 01:26:50;;;;;;;14.18;6.35;;;;;;;;;;5036982;28;20124;-59
2023/05/23 01:29:24;;;;;;;16.63;6.32;;;;;;;;;;5037645;28;20024;-61
2023/05/23 01:31:52;;;;;;;17.75;8.57;;;;;;;;;;5038337;28;20024;-60
2023/05/23 01:34:19;;;;;;;21.40;7.82;;;;;;;;;;5039122;28;20021;-61
2023/05/23 01:36:45;;;;;;;18.63;7.88;;;;;;;;;;5038903;28;20133;-60
2023/05/23 01:39:11;;;;;;;18.40;7.53;;;;;;;;;;5037375;28;20031;-64
2023/05/23 01:41:37;;;;;;;24.38;10.10;;;;;;;;;;5038684;28;20036;-61
2023/05/23 01:44:04;;;;;;;18.80;7.97;;;;;;;;;;5038414;28;20025;-60
2023/05/23 01:46:30;;;;;;;19.00;8.50;;;;;;;;;;5038261;28;20033;-61
2023/05/23 01:48:56;;;;;;;23.27;9.48;;;;;;;;;;5038089;28;20037;-60
2023/05/23 01:51:23;;;;;;;24.20;9.65;;;;;;;;;;5023792;28;20052;-60
2023/05/23 01:53:50;;;;;;;23.98;9.05;;;;;;;;;;5038127;28;20538;-60
2023/05/23 01:56:17;;;;;;;26.77;9.43;;;;;;;;;;5037892;28;20036;-60
2023/05/23 01:58:43;;;;;;;24.40;9.38;;;;;;;;;;5037923;28;20043;-60
2023/05/23 02:01:09;;;;;;;29.70;10.55;;;;;;;;;;5036515;28;20036;-60
2023/05/23 02:03:35;;;;;;;27.35;9.38;;;;;;;;;;5038177;28;20032;-60
2023/05/23 02:06:02;;;;;;;26.75;9.20;;;;;;;;;;5039036;28;20051;-60
2023/05/23 02:08:28;;;;;;;17.90;7.68;;;;;;;;;;5037666;28;20032;-60
2023/05/23 02:10:54;;;;;;;18.90;6.95;;;;;;;;;;5037411;28;20033;-60
2023/05/23 02:13:20;;;;;;;22.50;8.57;;;;;;;;;;5037104;28;20052;-60
2023/05/23 02:15:46;;;;;;;17.42;6.82;;;;;;;;;;5037741;28;20051;-60
2023/05/23 02:18:12;;;;;;;19.55;7.75;;;;;;;;;;5036659;28;20088;-60
2023/05/23 02:20:39;;;;;;;27.20;7.15;;;;;;;;;;5037097;28;20037;-60
2023/05/23 02:23:05;;;;;;;18.48;8.13;;;;;;;;;;5036582;28;20040;-60
2023/05/23 02:25:32;;;;;;;17.55;6.55;;;;;;;;;;5037224;28;20057;-60
2023/05/23 02:27:58;;;;;;;15.43;6.18;;;;;;;;;;5037609;28;20037;-59
2023/05/23 02:30:24;;;;;;;17.45;6.85;;;;;;;;;;5035357;28;20044;-60
2023/05/23 02:32:50;;;;;;;19.45;6.95;;;;;;;;;;5037803;28;20039;-59
2023/05/23 02:35:16;;;;;;;21.75;7.28;;;;;;;;;;5036587;28;20160;-60
2023/05/23 02:37:42;;;;;;;17.50;6.40;;;;;;;;;;5036333;28;20093;-59
2023/05/23 02:40:09;;;;;;;18.60;7.05;;;;;;;;;;5037212;28;20040;-60
2023/05/23 02:42:35;;;;;;;18.02;6.47;;;;;;;;;;5037041;28;20033;-60
2023/05/23 02:45:01;;;;;;;23.55;6.38;;;;;;;;;;5035197;28;20063;-60
2023/05/23 02:47:27;;;;;;;15.95;6.78;;;;;;;;;;5036791;28;20044;-60
2023/05/23 02:49:53;;;;;;;14.55;6.13;;;;;;;;;;5037718;28;20028;-60
2023/05/23 02:52:19;;;;;;;19.67;6.53;;;;;;;;;;5036757;28;20033;-60
2023/05/23 02:54:45;;;;;;;17.77;5.97;;;;;;;;;;5036714;28;20064;-60
2023/05/23 02:57:11;;;;;;;20.83;7.20;;;;;;;;;;5036726;28;20578;-59
2023/05/23 02:59:37;;;;;;;16.98;6.53;;;;;;;;;;5036037;28;20059;-60
2023/05/23 03:02:04;;;;;;;20.08;6.75;;;;;;;;;;5035872;28;20502;-59
2023/05/23 03:04:30;;;;;;;16.73;6.53;;;;;;;;;;5036613;28;20044;-60
2023/05/23 03:06:58;;;;;;;20.95;7.68;;;;;;;;;;5035395;28;20029;-60
2023/05/23 03:09:24;;;;;;;23.33;7.03;;;;;;;;;;5036329;28;20026;-60
2023/05/23 03:11:50;;;;;;;20.27;8.50;;;;;;;;;;5035265;28;20033;-60
2023/05/23 03:14:17;;;;;;;15.48;5.97;;;;;;;;;;5036369;28;20047;-60
2023/05/23 03:16:43;;;;;;;21.58;6.75;;;;;;;;;;5036185;28;20066;-60
2023/05/23 03:19:09;;;;;;;16.55;6.18;;;;;;;;;;5035689;28;20026;-60
2023/05/23 03:21:35;;;;;;;15.30;5.30;;;;;;;;;;5036154;28;20033;-60
2023/05/23 03:24:01;;;;;;;18.33;5.63;;;;;;;;;;5036345;28;20116;-60
2023/05/23 03:26:27;;;;;;;18.02;5.63;;;;;;;;;;5036246;28;20128;-60
2023/05/23 03:28:53;;;;;;;20.38;5.30;;;;;;;;;;5035621;28;20124;-60
2023/05/23 03:31:19;;;;;;;18.08;5.85;;;;;;;;;;5035816;28;20040;-60
2023/05/23 03:33:45;;;;;;;13.55;5.28;;;;;;;;;;5035523;28;21830;-60
2023/05/23 03:36:11;;;;;;;16.55;5.43;;;;;;;;;;5037671;28;20513;-59
2023/05/23 03:38:37;;;;;;;15.63;5.43;;;;;;;;;;5036005;28;20033;-60
2023/05/23 03:41:03;;;;;;;12.88;4.78;;;;;;;;;;5035221;28;20103;-60
2023/05/23 03:43:29;;;;;;;15.00;4.80;;;;;;;;;;5035856;28;20036;-60
2023/05/23 03:45:55;;;;;;;14.30;4.70;;;;;;;;;;5034384;28;20142;-60
2023/05/23 03:48:21;;;;;;;14.23;5.32;;;;;;;;;;5035797;28;20040;-60
2023/05/23 03:50:47;;;;;;;18.75;5.05;;;;;;;;;;5035664;28;20029;-60
2023/05/23 03:53:14;;;;;;;15.73;4.40;;;;;;;;;;5035823;28;20128;-60
2023/05/23 03:55:40;;;;;;;12.38;4.57;;;;;;;;;;5035814;28;20112;-60
2023/05/23 03:58:06;;;;;;;15.43;4.93;;;;;;;;;;5034899;28;20044;-60
2023/05/23 04:00:32;;;;;;;18.75;4.43;;;;;;;;;;5035021;28;20036;-60
2023/05/23 04:02:58;;;;;;;17.23;3.95;;;;;;;;;;5034689;28;20040;-59
2023/05/23 04:05:24;;;;;;;15.55;4.55;;;;;;;;;;5035744;28;20054;-60
2023/05/23 04:07:51;;;;;;;17.00;5.15;;;;;;;;;;5036153;28;20033;-60
2023/05/23 04:10:17;;;;;;;14.48;4.80;;;;;;;;;;5035784;28;20491;-60
2023/05/23 04:12:43;;;;;;;13.73;4.80;;;;;;;;;;5032440;28;20041;-60
2023/05/23 04:15:10;;;;;;;18.92;4.63;;;;;;;;;;5032269;28;20056;-59
2023/05/23 04:17:37;;;;;;;18.65;5.15;;;;;;;;;;5021957;28;20036;-60
2023/05/23 04:20:04;;;;;;;13.45;3.70;;;;;;;;;;5035376;28;20037;-60
2023/05/23 04:22:30;;;;;;;13.40;3.75;;;;;;;;;;5034394;28;20510;-60
2023/05/23 04:24:56;;;;;;;10.73;4.68;;;;;;;;;;5035738;28;20579;-60
2023/05/23 04:27:24;;;;;;;15.50;3.58;;;;;;;;;;5035198;28;20618;-60
2023/05/23 04:29:51;;;;;;;12.85;3.67;;;;;;;;;;5035663;28;20744;-60
2023/05/23 04:32:18;;;;;;;12.88;3.75;;;;;;;;;;5034662;28;20064;-59
2023/05/23 04:34:44;;;;;;;13.60;3.90;;;;;;;;;;5035936;28;20041;-60
2023/05/23 04:37:10;;;;;;;15.95;4.22;;;;;;;;;;5035548;28;20028;-60
2023/05/23 04:39:37;;;;;;;18.25;4.63;;;;;;;;;;5034894;28;20033;-60
2023/05/23 04:42:03;;;;;;;16.23;4.60;;;;;;;;;;5035458;28;20033;-60
2023/05/23 04:44:29;;;;;;;18.08;5.88;;;;;;;;;;5035054;28;20060;-60
2023/05/23 04:46:56;;;;;;;13.80;4.20;;;;;;;;;;5036198;28;20022;-60
2023/05/23 04:49:22;;;;;;;15.68;5.78;;;;;;;;;;5034796;28;20037;-60
2023/05/23 04:51:48;;;;;;;14.88;5.10;;;;;;;;;;5039240;28;20111;-59
2023/05/23 04:54:14;;;;;;;23.27;7.07;;;;;;;;;;5039633;28;20064;-59
2023/05/23 04:56:40;;;;;;;18.58;6.78;;;;;;;;;;5038931;28;20025;-60
2023/05/23 04:59:07;;;;;;;20.42;6.70;;;;;;;;;;5036860;28;20153;-60
2023/05/23 05:01:33;;;;;;;23.30;7.65;;;;;;;;;;5037118;28;20025;-59
2023/05/23 05:03:59;;;;;;;16.85;6.07;;;;;;;;;;5036236;28;20572;-60
2023/05/23 05:06:27;;;;;;;18.25;5.93;;;;;;;;;;5038181;28;20300;-60
2023/05/23 05:08:53;;;;;;;17.33;5.95;;;;;;;;;;5035608;28;20407;-59
2023/05/23 05:11:19;;;;;;;12.57;5.22;;;;;;;;;;5038331;28;20668;-60
2023/05/23 05:13:45;;;;;;;14.52;5.25;;;;;;;;;;5037405;28;20068;-60
2023/05/23 05:16:11;;;;;;;11.52;5.00;;;;;;;;;;5031958;28;20060;-60
2023/05/23 05:18:39;;;;;;;15.73;5.95;;;;;;;;;;5029236;28;20031;-60
2023/05/23 05:21:05;;;;;;;17.48;5.40;;;;;;;;;;5037595;28;20040;-60
2023/05/23 05:23:32;;;;;;;17.92;5.35;;;;;;;;;;5036470;28;20016;-60
2023/05/23 05:25:59;;;;;;;13.88;5.65;;;;;;;;;;5037234;28;20068;-60
2023/05/23 05:28:25;;;;;;;17.10;6.13;;;;;;;;;;5036934;28;20047;-60
2023/05/23 05:30:53;;;;;;;18.40;5.85;;;;;;;;;;5037834;28;20047;-60
2023/05/23 05:33:22;;;;;;;17.73;5.28;;;;;;;;;;5037001;28;20048;-60
2023/05/23 05:35:48;;;;;;;11.40;5.07;;;;;;;;;;5034634;28;20033;-60
2023/05/23 05:38:14;;;;;;;13.00;4.88;;;;;;;;;;5035897;28;20029;-60
2023/05/23 05:40:40;;;;;;;12.98;4.50;;;;;;;;;;5035928;28;20042;-60
2023/05/23 05:43:07;;;;;;;18.77;5.32;;;;;;;;;;5038222;28;20051;-60
2023/05/23 05:45:33;;;;;;;13.45;4.78;;;;;;;;;;5037920;28;20437;-60
2023/05/23 05:47:59;;;;;;;22.33;4.82;;;;;;;;;;5039582;28;20048;-60
2023/05/23 05:50:25;;;;;;;16.58;4.82;;;;;;;;;;5037986;28;20649;-60
2023/05/23 05:52:51;;;;;;;14.85;5.18;;;;;;;;;;5038165;28;20044;-60
2023/05/23 05:55:17;;;;;;;12.70;4.50;;;;;;;;;;5038117;28;20033;-60
2023/05/23 05:57:43;;;;;;;12.70;3.85;;;;;;;;;;5036772;28;20062;-60
2023/05/23 06:00:17;;;;;;;11.85;3.40;;;;;;;;;;5038050;28;20029;-60
2023/05/23 06:02:46;;;;;;;11.05;3.40;;;;;;;;;;5037949;28;20085;-60
2023/05/23 06:05:13;;;;;;;10.93;4.00;;;;;;;;;;5037317;28;20368;-60
2023/05/23 06:07:39;;;;;;;11.38;3.55;;;;;;;;;;5037703;28;20479;-60
2023/05/23 06:10:07;;;;;;;12.63;3.30;;;;;;;;;;5036617;28;20143;-60
2023/05/23 06:12:33;;;;;;;10.70;3.53;;;;;;;;;;5035841;28;20064;-60
2023/05/23 06:14:59;;;;;;;11.07;3.47;;;;;;;;;;5036494;28;20064;-61
2023/05/23 06:17:25;;;;;;;11.63;3.47;;;;;;;;;;5034574;28;20038;-60
2023/05/23 06:19:52;;;;;;;19.17;3.80;;;;;;;;;;5037830;28;20025;-60
2023/05/23 06:22:18;;;;;;;17.55;3.65;;;;;;;;;;5038068;28;20144;-60
2023/05/23 06:24:44;;;;;;;15.35;3.42;;;;;;;;;;5036639;28;20033;-59
2023/05/23 06:27:10;;;;;;;12.65;3.10;;;;;;;;;;5036258;28;20021;-60
2023/05/23 06:29:36;;;;;;;18.05;4.35;;;;;;;;;;5034474;28;20029;-60
2023/05/23 06:32:02;;;;;;;15.43;3.63;;;;;;;;;;5036464;28;20037;-62
2023/05/23 06:34:28;;;;;;;17.88;4.28;;;;;;;;;;5037999;28;20028;-60
2023/05/23 06:36:55;;;;;;;18.67;4.32;;;;;;;;;;5036784;28;20017;-60
2023/05/23 06:39:21;;;;;;;15.98;3.38;;;;;;;;;;5037417;28;20214;-59
2023/05/23 06:41:47;;;;;;;18.05;4.05;;;;;;;;;;5036919;28;20037;-59
2023/05/23 06:44:13;;;;;;;15.00;4.35;;;;;;;;;;5036213;28;20033;-60
2023/05/23 06:46:39;;;;;;;17.13;3.58;;;;;;;;;;5036536;28;20029;-60
2023/05/23 06:49:05;;;;;;;14.48;3.67;;;;;;;;;;5034578;28;20040;-60
2023/05/23 06:51:31;;;;;;;15.07;3.45;;;;;;;;;;5036076;28;20128;-59
2023/05/23 06:53:57;;;;;;;15.52;4.13;;;;;;;;;;5036058;28;20033;-60
2023/05/23 06:56:23;;;;;;;19.70;5.03;;;;;;;;;;5036943;28;20041;-59
2023/05/23 06:58:50;;;;;;;19.50;4.00;;;;;;;;;;5036372;28;20064;-60
2023/05/23 07:01:16;;;;;;;17.83;4.78;;;;;;;;;;5036894;28;20663;-60
2023/05/23 07:03:42;;;;;;;15.05;3.50;;;;;;;;;;5035974;28;22026;-60
2023/05/23 07:06:08;;;;;;;19.00;4.32;;;;;;;;;;5037391;28;20817;-60
2023/05/23 07:08:34;;;;;;;19.92;4.28;;;;;;;;;;5037259;28;20044;-61
2023/05/23 07:11:00;;;;;;;21.33;4.03;;;;;;;;;;5035976;28;20542;-60
2023/05/23 07:13:26;;;;;;;15.85;4.03;;;;;;;;;;5035688;28;20565;-60
2023/05/23 07:15:52;;;;;;;18.98;4.30;;;;;;;;;;5035329;28;20823;-60
2023/05/23 07:18:18;;;;;;;17.50;4.18;;;;;;;;;;5034941;28;20776;-60
2023/05/23 07:20:44;;;;;;;21.20;4.30;;;;;;;;;;5035383;28;20028;-61
2023/05/23 07:23:10;;;;;;;18.05;3.40;;;;;;;;;;5035767;28;20025;-60
2023/05/23 07:25:39;;;;;;;19.50;4.13;;;;;;;;;;5034206;28;20020;-60
2023/05/23 07:28:05;;;;;;;16.65;2.90;;;;;;;;;;5035141;28;20476;-60
2023/05/23 07:30:31;;;;;;;15.05;3.45;;;;;;;;;;5036380;28;20071;-60
2023/05/23 07:32:57;;;;;;;16.70;3.60;;;;;;;;;;5036678;28;20922;-60
2023/05/23 07:35:25;;;;;;;19.33;3.85;;;;;;;;;;5035971;28;20033;-60
2023/05/23 07:37:54;;;;;;;17.40;3.30;;;;;;;;;;5036304;28;21855;-60
2023/05/23 07:40:21;;;;;;;17.70;4.20;;;;;;;;;;5036429;28;20051;-60
2023/05/23 07:42:47;;;;;;;14.10;3.53;;;;;;;;;;5034455;28;20025;-59
2023/05/23 07:45:13;;;;;;;18.02;4.10;;;;;;;;;;5036327;28;20527;-60
2023/05/23 07:47:39;;;;;;;19.08;4.47;;;;;;;;;;5034315;28;20040;-60
2023/05/23 07:50:05;;;;;;;13.23;3.38;;;;;;;;;;5034989;28;20063;-61
2023/05/23 07:52:31;;;;;;;14.23;3.35;;;;;;;;;;5035447;28;20029;-60
2023/05/23 07:54:58;;;;;;;17.08;3.40;;;;;;;;;;5034738;28;20033;-60
2023/05/23 07:57:25;;;;;;;12.30;3.10;;;;;;;;;;5035254;28;20610;-60
2023/05/23 07:59:52;;;;;;;17.80;4.47;;;;;;;;;;5034633;28;20029;-60
2023/05/23 08:02:18;;;;;;;13.95;3.45;;;;;;;;;;5036152;28;20398;-59
2023/05/23 08:04:44;;;;;;;16.10;3.70;;;;;;;;;;5035758;28;20019;-59
2023/05/23 08:07:11;;;;;;;17.67;2.95;;;;;;;;;;5035440;28;20021;-60
2023/05/23 08:09:39;;;;;;;22.17;4.20;;;;;;;;;;5035254;28;20028;-61
2023/05/23 08:12:05;;;;;;;19.20;3.90;;;;;;;;;;5034059;28;20029;-60
2023/05/23 08:14:32;;;;;;;19.90;4.28;;;;;;;;;;5035486;28;20053;-60
2023/05/23 08:16:58;;;;;;;18.88;5.05;;;;;;;;;;5034696;28;20033;-60
2023/05/23 08:19:24;;;;;;;19.83;3.88;;;;;;;;;;5034874;28;20037;-60
2023/05/23 08:21:52;;;;;;;13.73;3.55;;;;;;;;;;5036034;28;21268;-60
2023/05/23 08:24:18;;;;;;;15.77;4.43;;;;;;;;;;5035662;28;20102;-60
2023/05/23 08:26:44;;;;;;;18.23;4.25;;;;;;;;;;5035208;28;20104;-60
2023/05/23 08:29:10;;;;;;;18.42;4.00;;;;;;;;;;5036200;28;20499;-60
2023/05/23 08:31:36;;;;;;;19.35;4.13;;;;;;;;;;5037854;28;20045;-60
2023/05/23 08:34:03;;;;;;;13.27;3.20;;;;;;;;;;5035450;28;20200;-60
2023/05/23 08:36:30;;;;;;;13.27;3.45;;;;;;;;;;5036205;28;20033;-60
2023/05/23 08:38:56;;;;;;;19.58;4.07;;;;;;;;;;5035662;28;20036;-60
2023/05/23 08:41:23;;;;;;;16.30;4.07;;;;;;;;;;5033333;28;20071;-59
2023/05/23 08:43:49;;;;;;;19.95;3.88;;;;;;;;;;5033803;28;20025;-60
2023/05/23 08:46:15;;;;;;;12.65;2.90;;;;;;;;;;5032995;28;20104;-60
2023/05/23 08:48:43;;;;;;;18.60;3.45;;;;;;;;;;5035252;28;20033;-60
2023/05/23 08:51:11;;;;;;;12.27;3.33;;;;;;;;;;5034311;28;20033;-60
2023/05/23 08:53:38;;;;;;;17.40;3.83;;;;;;;;;;5035652;28;20044;-60
2023/05/23 08:56:04;;;;;;;17.08;3.58;;;;;;;;;;5035487;28;20033;-60
2023/05/23 08:58:33;;;;;;;17.80;3.83;;;;;;;;;;5035546;28;20041;-60
2023/05/23 09:00:59;;;;;;;24.02;5.07;;;;;;;;;;5034081;28;20110;-59
2023/05/23 09:03:26;;;;;;;16.05;4.07;;;;;;;;;;5035026;28;20120;-60
2023/05/23 09:05:53;;;;;;;12.93;3.38;;;;;;;;;;5033701;28;20086;-60
2023/05/23 09:08:20;;;;;;;15.57;4.15;;;;;;;;;;5027364;28;20040;-60
2023/05/23 09:10:46;;;;;;;13.52;3.70;;;;;;;;;;5028401;28;20083;-60
2023/05/23 09:13:12;;;;;;;14.93;3.38;;;;;;;;;;5029482;28;20521;-59
2023/05/23 09:15:38;;;;;;;16.58;3.30;;;;;;;;;;5030491;28;20136;-59
2023/05/23 09:18:05;;;;;;;12.20;3.17;;;;;;;;;;5029945;28;20184;-60
2023/05/23 09:20:33;;;;;;;15.27;3.60;;;;;;;;;;5029766;28;21998;-60
2023/05/23 09:22:59;;;;;;;16.10;3.58;;;;;;;;;;5026887;28;20120;-60
2023/05/23 09:25:25;;;;;;;11.68;2.63;;;;;;;;;;5029294;28;20030;-60
2023/05/23 09:27:53;;;;;;;16.83;3.28;;;;;;;;;;5027391;28;20057;-60
2023/05/23 09:30:19;;;;;;;12.55;3.42;;;;;;;;;;5029824;28;20094;-61
2023/05/23 09:32:58;;;;;;;15.98;3.95;;;;;;;;;;5029342;28;20090;-60
2023/05/23 09:35:24;;;;;;;16.20;3.95;;;;;;;;;;5029546;28;20555;-59
2023/05/23 09:37:51;;;;;;;11.70;2.90;;;;;;;;;;5034052;28;20052;-59
2023/05/23 09:40:17;;;;;;;17.67;3.78;;;;;;;;;;5033592;28;20116;-60
2023/05/23 09:42:44;;;;;;;17.20;3.22;;;;;;;;;;5033517;28;20039;-60
2023/05/23 09:45:15;;;;;;;15.05;2.85;;;;;;;;;;5033595;28;20029;-60
2023/05/23 09:47:50;;;;;;;18.92;3.42;;;;;;;;;;5033931;28;20032;-61
2023/05/23 09:50:17;;;;;;;12.57;2.88;;;;;;;;;;5033134;28;20075;-60
2023/05/23 09:52:43;;;;;;;16.17;3.85;;;;;;;;;;5033268;28;20017;-60
2023/05/23 09:55:10;;;;;;;11.50;3.22;;;;;;;;;;5033580;28;20506;-60
2023/05/23 09:57:39;;;;;;;19.67;4.95;;;;;;;;;;5034253;28;20061;-59
2023/05/23 10:00:13;;;;;;;17.65;4.90;;;;;;;;;;5032879;28;20841;-60
2023/05/23 10:02:56;;;;;;;19.08;3.67;;;;;;;;;;5032656;28;20036;-60
2023/05/23 10:05:30;;;;;;;13.32;3.35;;;;;;;;;;5034568;28;20079;-60
2023/05/23 10:07:58;;;;;;;15.75;3.40;;;;;;;;;;5036218;28;20112;-60
2023/05/23 10:10:27;;;;;;;13.63;3.05;;;;;;;;;;5032134;28;20044;-61
2023/05/23 10:12:55;;;;;;;14.85;2.97;;;;;;;;;;5022205;28;20123;-60
2023/05/23 10:15:22;;;;;;;13.68;3.25;;;;;;;;;;5025581;28;20053;-60
2023/05/23 10:18:07;;;;;;;13.88;3.33;;;;;;;;;;5025876;28;20031;-60
2023/05/23 10:20:34;;;;;;;13.02;2.97;;;;;;;;;;5026327;28;20025;-59
2023/05/23 10:23:00;;;;;;;14.60;2.85;;;;;;;;;;5027750;28;20032;-60
2023/05/23 10:25:27;;;;;;;16.48;3.85;;;;;;;;;;5027591;28;20029;-60
2023/05/23 10:27:57;;;;;;;22.85;5.20;;;;;;;;;;5027304;28;20111;-59
2023/05/23 10:30:24;;;;;;;12.00;2.90;;;;;;;;;;5027151;28;20056;-60
2023/05/23 10:32:51;;;;;;;15.80;3.70;;;;;;;;;;5027280;28;20047;-59
2023/05/23 10:35:38;;;;;;;14.63;3.33;;;;;;;;;;5024786;28;20043;-60
2023/05/23 10:38:17;;;;;;;13.15;3.67;;;;;;;;;;5027628;28;21022;-60
2023/05/23 10:40:54;;;;;;;17.65;3.40;;;;;;;;;;5026260;28;20045;-60
2023/05/23 10:43:31;;;;;;;11.93;3.45;;;;;;;;;;5027604;28;20065;-59
2023/05/23 10:45:57;;;;;;;13.75;3.22;;;;;;;;;;5027202;28;20029;-60
2023/05/23 10:48:34;;;;;;;18.27;3.63;;;;;;;;;;5026666;28;20067;-60
2023/05/23 10:51:07;;;;;;;17.25;3.88;;;;;;;;;;5026094;28;20032;-60
2023/05/23 10:53:40;;;;;;;16.05;3.28;;;;;;;;;;5024987;28;20052;-60
2023/05/23 10:56:07;;;;;;;14.70;3.17;;;;;;;;;;5025421;28;20056;-60
2023/05/23 10:58:33;;;;;;;16.40;3.67;;;;;;;;;;5025614;28;20114;-60
2023/05/23 11:01:01;;;;;;;12.85;2.53;;;;;;;;;;5026269;28;21063;-60
2023/05/23 11:03:32;;;;;;;15.00;2.80;;;;;;;;;;5024080;28;20048;-60
2023/05/23 11:05:59;;;;;;;13.15;4.03;;;;;;;;;;5026758;28;20060;-59
2023/05/23 11:08:26;;;;;;;10.50;2.83;;;;;;;;;;5024221;28;20048;-60
2023/05/23 11:10:52;;;;;;;12.60;3.10;;;;;;;;;;5025174;28;20576;-60
2023/05/23 11:13:18;;;;;;;18.95;3.38;;;;;;;;;;5025303;28;20684;-60
2023/05/23 11:15:44;;;;;;;14.73;3.30;;;;;;;;;;5026959;28;20056;-59
2023/05/23 11:18:19;;;;;;;21.38;3.42;;;;;;;;;;5024935;28;20115;-60
2023/05/23 11:20:46;;;;;;;14.25;3.17;;;;;;;;;;5026256;28;20017;-59
2023/05/23 11:23:12;;;;;;;10.00;2.83;;;;;;;;;;5024400;28;20042;-60
2023/05/23 11:25:40;;;;;;;10.45;3.25;;;;;;;;;;5026472;28;20032;-60
2023/05/23 11:28:06;;;;;;;14.32;3.35;;;;;;;;;;5025282;28;20044;-60
2023/05/23 11:30:35;;;;;;;15.00;3.40;;;;;;;;;;5024160;28;20032;-59
2023/05/23 11:33:07;;;;;;;14.85;3.35;;;;;;;;;;5023926;28;20037;-59
2023/05/23 11:35:33;;;;;;;12.05;3.20;;;;;;;;;;5024698;28;20052;-60
2023/05/23 11:37:59;;;;;;;16.67;3.42;;;;;;;;;;5025293;28;20116;-60
2023/05/23 11:40:27;;;;;;;13.38;2.88;;;;;;;;;;5023956;28;20154;-60
2023/05/23 11:42:53;;;;;;;11.52;3.35;;;;;;;;;;5025214;28;20045;-60
2023/05/23 11:45:20;;;;;;;15.93;2.58;;;;;;;;;;5024603;28;20528;-60
2023/05/23 11:47:46;;;;;;;12.70;2.75;;;;;;;;;;5024168;28;20041;-60
2023/05/23 11:50:12;;;;;;;14.52;2.88;;;;;;;;;;5024196;28;20045;-60
2023/05/23 11:52:38;;;;;;;11.63;3.20;;;;;;;;;;5023471;28;20039;-60
2023/05/23 11:55:04;;;;;;;11.48;3.33;;;;;;;;;;5025552;28;20048;-60
2023/05/23 11:57:30;;;;;;;14.23;2.78;;;;;;;;;;5025515;28;20719;-60
2023/05/23 11:59:56;;;;;;;12.00;3.40;;;;;;;;;;5021920;28;20033;-60
2023/05/23 12:02:22;;;;;;;7.68;2.08;;;;;;;;;;5024498;28;20083;-60
2023/05/23 12:04:48;;;;;;;13.95;2.67;;;;;;;;;;5025984;28;20025;-60
2023/05/23 12:07:18;;;;;;;15.30;3.67;;;;;;;;;;5034187;28;20108;-59
2023/05/23 12:09:45;;;;;;;15.32;3.40;;;;;;;;;;5033693;28;20024;-59
2023/05/23 12:12:12;;;;;;;14.20;3.50;;;;;;;;;;5021654;28;20049;-60
2023/05/23 12:14:43;;;;;;;15.80;3.90;;;;;;;;;;5024018;28;20070;-60
2023/05/23 12:17:11;;;;;;;18.17;3.97;;;;;;;;;;5022689;28;20101;-60
2023/05/23 12:19:37;;;;;;;16.20;3.83;;;;;;;;;;5024352;28;20030;-60
2023/05/23 12:22:07;;;;;;;15.05;3.65;;;;;;;;;;5026479;28;20528;-60
2023/05/23 12:24:33;;;;;;;11.93;2.72;;;;;;;;;;5025928;28;20033;-60
2023/05/23 12:27:01;;;;;;;13.20;3.08;;;;;;;;;;5026834;28;20033;-60
2023/05/23 12:29:31;;;;;;;13.95;2.75;;;;;;;;;;5023719;28;20021;-61
2023/05/23 12:31:58;;;;;;;14.77;3.25;;;;;;;;;;5024415;28;20126;-60
2023/05/23 12:34:24;;;;;;;12.82;3.17;;;;;;;;;;5026129;28;20480;-60
2023/05/23 12:36:54;;;;;;;12.70;2.78;;;;;;;;;;5023580;28;20033;-60
2023/05/23 12:39:32;;;;;;;12.40;2.30;;;;;;;;;;5024075;28;20025;-64
2023/05/23 12:42:08;;;;;;;14.52;2.35;;;;;;;;;;5023038;28;20037;-65
2023/05/23 12:44:34;;;;;;;13.35;4.07;;;;;;;;;;5024869;28;20029;-65
2023/05/23 12:47:01;;;;;;;12.60;3.00;;;;;;;;;;5024788;28;20026;-65
2023/05/23 12:49:27;;;;;;;15.05;3.38;;;;;;;;;;5026810;28;20037;-65
2023/05/23 12:51:53;;;;;;;12.40;3.33;;;;;;;;;;5024989;28;20048;-64
2023/05/23 12:54:19;;;;;;;11.38;2.40;;;;;;;;;;5024502;28;20042;-65
2023/05/23 12:56:45;;;;;;;11.60;2.45;;;;;;;;;;5033894;28;20041;-65
2023/05/23 12:59:11;;;;;;;13.27;2.80;;;;;;;;;;5033919;28;20051;-64
2023/05/23 13:01:37;;;;;;;14.48;2.85;;;;;;;;;;5035176;28;20036;-65
2023/05/23 13:04:03;;;;;;;20.13;3.17;;;;;;;;;;5035307;28;20119;-64
2023/05/23 13:06:30;;;;;;;12.23;2.63;;;;;;;;;;5032617;28;20029;-65
2023/05/23 13:08:56;;;;;;;13.00;2.50;;;;;;;;;;5033699;28;20074;-64
2023/05/23 13:11:22;;;;;;;9.00;2.38;;;;;;;;;;5035554;28;20700;-65
2023/05/23 13:13:49;;;;;;;11.55;2.53;;;;;;;;;;5038114;28;20041;-65
2023/05/23 13:16:15;;;;;;;16.77;2.85;;;;;;;;;;5037357;28;20051;-65
2023/05/23 13:18:41;;;;;;;17.00;3.53;;;;;;;;;;5038481;28;20421;-65
2023/05/23 13:21:08;;;;;;;15.15;3.67;;;;;;;;;;5038879;28;20025;-65
2023/05/23 13:23:36;;;;;;;11.98;3.40;;;;;;;;;;5039210;28;20029;-65
2023/05/23 13:26:02;;;;;;;15.40;3.50;;;;;;;;;;5038678;28;20025;-65
2023/05/23 13:28:28;;;;;;;8.55;2.33;;;;;;;;;;5037679;28;20045;-65
2023/05/23 13:30:54;;;;;;;10.30;2.72;;;;;;;;;;5039647;28;20143;-64
2023/05/23 13:33:22;;;;;;;13.48;2.38;;;;;;;;;;5038709;28;20500;-64
2023/05/23 13:35:49;;;;;;;11.05;2.55;;;;;;;;;;5037891;28;20479;-65
2023/05/23 13:38:15;;;;;;;17.40;4.00;;;;;;;;;;5037970;28;20116;-65
2023/05/23 13:40:41;;;;;;;13.90;2.88;;;;;;;;;;5038248;28;20227;-65
2023/05/23 13:43:07;;;;;;;11.77;2.30;;;;;;;;;;5035395;28;20072;-65
2023/05/23 13:45:33;;;;;;;13.70;2.63;;;;;;;;;;5037677;28;20028;-65
2023/05/23 13:47:59;;;;;;;11.60;2.75;;;;;;;;;;5037682;28;20035;-65
2023/05/23 13:50:26;;;;;;;9.77;2.25;;;;;;;;;;5039841;28;20460;-65
2023/05/23 13:52:52;;;;;;;15.48;2.85;;;;;;;;;;5038861;28;20749;-65
2023/05/23 13:55:18;;;;;;;11.52;2.75;;;;;;;;;;5039200;28;20032;-65
2023/05/23 13:57:44;;;;;;;10.98;3.40;;;;;;;;;;5039923;28;20036;-65
2023/05/23 14:00:11;;;;;;;12.73;3.03;;;;;;;;;;5038019;28;20459;-65
2023/05/23 14:02:37;;;;;;;14.05;3.35;;;;;;;;;;5038918;28;20977;-66
2023/05/23 14:05:03;;;;;;;18.50;3.50;;;;;;;;;;5039749;28;20037;-65
2023/05/23 14:07:29;;;;;;;13.20;3.15;;;;;;;;;;5029326;28;20387;-65
2023/05/23 14:09:56;;;;;;;15.80;3.22;;;;;;;;;;5029223;28;20090;-65
2023/05/23 14:12:22;;;;;;;15.10;2.80;;;;;;;;;;5029924;28;20222;-65
2023/05/23 14:14:48;;;;;;;12.50;2.45;;;;;;;;;;5028321;28;20549;-65
2023/05/23 14:17:18;;;;;;;14.82;3.20;;;;;;;;;;5028234;28;21495;-65
2023/05/23 14:19:44;;;;;;;9.68;2.22;;;;;;;;;;5016156;28;20076;-66
2023/05/23 14:22:11;;;;;;;13.55;2.60;;;;;;;;;;5028236;28;20032;-65
2023/05/23 14:24:37;;;;;;;10.95;2.80;;;;;;;;;;5029250;28;20028;-65
2023/05/23 14:27:03;;;;;;;14.25;2.63;;;;;;;;;;5028558;28;20037;-65
2023/05/23 14:29:29;;;;;;;13.38;3.03;;;;;;;;;;5028330;28;20102;-65